Time;durP1;ratioP1;P1;durP2;ratioP2;P2;SDS_P1;SDS_P2;PMS_P1;PMS_P2;Temp;Humidity;BMP_temperature;BMP_pressure;BME280_temperature;BME280_humidity;BME280_pressure;Samples;Min_cycle;Max_cycle;Signal;HPM_P1;HPM_P2
2023/09/11 00:01:37;;;;;;;87.47;43.13;;;;;;;;;;5003119;28;20175;-68
2023/09/11 00:04:03;;;;;;;82.80;41.28;;;;;;;;;;5035895;28;20051;-68
2023/09/11 00:06:29;;;;;;;93.03;41.08;;;;;;;;;;5052040;28;20578;-68
2023/09/11 00:08:57;;;;;;;87.03;41.30;;;;;;;;;;5035902;28;20052;-73
2023/09/11 00:11:23;;;;;;;89.15;40.92;;;;;;;;;;5019980;28;20057;-69
2023/09/11 00:13:49;;;;;;;83.93;39.25;;;;;;;;;;5038943;28;20106;-69
2023/09/11 00:16:15;;;;;;;94.15;43.13;;;;;;;;;;5056786;28;20312;-68
2023/09/11 00:18:40;;;;;;;75.60;37.90;;;;;;;;;;5056896;28;20094;-68
2023/09/11 00:21:06;;;;;;;86.28;40.15;;;;;;;;;;5056862;28;20128;-68
2023/09/11 00:23:31;;;;;;;80.75;39.22;;;;;;;;;;5056532;28;20033;-69
2023/09/11 00:25:57;;;;;;;81.85;39.72;;;;;;;;;;5073380;28;20047;-68
2023/09/11 00:28:23;;;;;;;77.38;38.30;;;;;;;;;;5073290;28;20048;-69
2023/09/11 00:30:48;;;;;;;74.38;38.17;;;;;;;;;;5056341;28;20032;-68
2023/09/11 00:33:15;;;;;;;76.75;37.75;;;;;;;;;;5073015;28;20084;-68
2023/09/11 00:35:45;;;;;;;67.30;35.30;;;;;;;;;;5056185;28;20104;-68
2023/09/11 00:38:11;;;;;;;78.37;39.77;;;;;;;;;;5072889;28;20033;-68
2023/09/11 00:40:36;;;;;;;79.20;40.30;;;;;;;;;;5056308;28;20040;-68
2023/09/11 00:43:03;;;;;;;81.65;39.67;;;;;;;;;;5072873;28;20040;-68
2023/09/11 00:45:28;;;;;;;79.43;39.67;;;;;;;;;;5056387;28;20058;-69
2023/09/11 00:47:55;;;;;;;81.00;39.90;;;;;;;;;;5074075;28;20245;-68
2023/09/11 00:50:22;;;;;;;83.10;40.17;;;;;;;;;;5039648;28;20036;-66
2023/09/11 00:52:48;;;;;;;74.97;37.65;;;;;;;;;;5072668;28;20560;-67
2023/09/11 00:55:16;;;;;;;76.32;37.00;;;;;;;;;;5071456;28;20040;-68
2023/09/11 00:57:42;;;;;;;77.80;38.33;;;;;;;;;;5054931;28;20373;-68
2023/09/11 01:00:08;;;;;;;76.25;38.97;;;;;;;;;;5055190;28;20044;-68
2023/09/11 01:02:34;;;;;;;78.10;38.53;;;;;;;;;;5037968;28;20037;-69
2023/09/11 01:05:00;;;;;;;73.32;37.35;;;;;;;;;;5038078;28;20131;-68
2023/09/11 01:07:26;;;;;;;78.82;40.47;;;;;;;;;;5040051;28;20032;-68
2023/09/11 01:09:52;;;;;;;86.05;40.35;;;;;;;;;;5055953;28;20051;-69
2023/09/11 01:12:18;;;;;;;88.38;41.78;;;;;;;;;;5055372;28;20079;-68
2023/09/11 01:14:43;;;;;;;82.88;40.83;;;;;;;;;;5023107;28;20067;-68
2023/09/11 01:17:24;;;;;;;80.30;40.00;;;;;;;;;;5056637;28;20036;-68
2023/09/11 01:19:50;;;;;;;76.05;38.03;;;;;;;;;;5038815;28;20041;-73
2023/09/11 01:22:42;;;;;;;78.80;38.97;;;;;;;;;;5039608;28;20075;-67
2023/09/11 01:25:26;;;;;;;77.78;37.75;;;;;;;;;;5072539;28;20123;-68
2023/09/11 01:28:11;;;;;;;76.88;39.30;;;;;;;;;;5056507;28;20153;-68
2023/09/11 01:30:38;;;;;;;77.70;38.60;;;;;;;;;;5057112;28;20102;-67
2023/09/11 01:33:04;;;;;;;85.47;41.65;;;;;;;;;;5056814;28;20047;-68
2023/09/11 01:35:30;;;;;;;91.15;41.42;;;;;;;;;;5055376;28;20114;-73
2023/09/11 01:37:56;;;;;;;86.05;41.25;;;;;;;;;;5022511;28;20040;-68
2023/09/11 01:40:26;;;;;;;93.32;44.35;;;;;;;;;;5022052;28;20044;-69
2023/09/11 01:42:55;;;;;;;86.05;41.83;;;;;;;;;;5038512;28;20048;-69
2023/09/11 01:45:21;;;;;;;92.43;42.03;;;;;;;;;;5055151;28;20049;-68
2023/09/11 01:47:50;;;;;;;94.35;44.17;;;;;;;;;;5034873;28;20051;-68
2023/09/11 01:50:17;;;;;;;87.03;42.50;;;;;;;;;;5051291;28;20434;-70
2023/09/11 01:52:43;;;;;;;80.32;38.55;;;;;;;;;;5018010;28;20064;-70
2023/09/11 01:55:09;;;;;;;89.05;40.08;;;;;;;;;;5011753;28;20057;-69
2023/09/11 01:57:34;;;;;;;99.65;42.70;;;;;;;;;;5011684;28;20099;-70
2023/09/11 02:00:00;;;;;;;88.15;41.75;;;;;;;;;;5010973;28;20179;-71
2023/09/11 02:02:29;;;;;;;95.88;43.63;;;;;;;;;;4978486;28;20063;-71
2023/09/11 02:04:55;;;;;;;91.72;43.42;;;;;;;;;;4978306;28;20084;-70
2023/09/11 02:07:21;;;;;;;84.20;41.95;;;;;;;;;;4994556;28;20077;-72
2023/09/11 02:09:47;;;;;;;87.72;41.80;;;;;;;;;;5011360;28;20046;-71
2023/09/11 02:12:12;;;;;;;87.18;41.33;;;;;;;;;;4994987;28;20173;-72
2023/09/11 02:14:38;;;;;;;92.45;41.72;;;;;;;;;;4996904;28;20361;-71
2023/09/11 02:17:04;;;;;;;87.90;41.25;;;;;;;;;;5013308;28;20436;-71
2023/09/11 02:19:31;;;;;;;92.03;42.70;;;;;;;;;;5030217;28;20388;-72
2023/09/11 02:21:58;;;;;;;92.50;42.58;;;;;;;;;;5017731;28;20060;-71
2023/09/11 02:24:24;;;;;;;95.45;42.22;;;;;;;;;;5017547;28;20061;-73
2023/09/11 02:26:50;;;;;;;95.47;44.38;;;;;;;;;;5017931;28;20106;-71
2023/09/11 02:29:15;;;;;;;92.70;44.20;;;;;;;;;;5018677;28;20049;-71
2023/09/11 02:31:41;;;;;;;94.28;42.30;;;;;;;;;;5037422;28;20075;-71
2023/09/11 02:34:07;;;;;;;103.80;44.38;;;;;;;;;;5037810;28;20039;-71
2023/09/11 02:36:32;;;;;;;101.35;45.70;;;;;;;;;;5054416;28;20041;-71
2023/09/11 02:38:58;;;;;;;92.90;43.70;;;;;;;;;;5054843;28;20036;-73
2023/09/11 02:41:24;;;;;;;105.38;46.20;;;;;;;;;;5071243;28;20036;-71
2023/09/11 02:43:50;;;;;;;113.97;48.58;;;;;;;;;;5071113;28;20367;-72
2023/09/11 02:46:16;;;;;;;106.85;48.25;;;;;;;;;;5070847;28;20127;-71
2023/09/11 02:48:46;;;;;;;109.40;47.88;;;;;;;;;;5054005;28;20127;-71
2023/09/11 02:51:13;;;;;;;105.30;47.22;;;;;;;;;;5054058;28;20127;-71
2023/09/11 02:53:42;;;;;;;103.10;45.30;;;;;;;;;;5053430;28;20044;-71
2023/09/11 02:56:07;;;;;;;113.68;49.72;;;;;;;;;;5036920;28;20127;-71
2023/09/11 02:58:34;;;;;;;108.45;49.17;;;;;;;;;;5039294;28;20352;-71
2023/09/11 03:01:03;;;;;;;105.72;46.83;;;;;;;;;;5056938;28;20131;-71
2023/09/11 03:03:29;;;;;;;105.72;48.25;;;;;;;;;;5037560;28;20135;-71
2023/09/11 03:06:00;;;;;;;110.22;47.58;;;;;;;;;;5053157;28;20044;-70
2023/09/11 03:08:26;;;;;;;106.88;44.75;;;;;;;;;;5036260;28;20047;-71
2023/09/11 03:10:54;;;;;;;118.25;48.83;;;;;;;;;;5036246;28;20105;-71
2023/09/11 03:13:19;;;;;;;118.85;47.50;;;;;;;;;;5052867;28;20052;-73
2023/09/11 03:15:45;;;;;;;107.13;46.42;;;;;;;;;;5052795;28;20036;-71
2023/09/11 03:18:11;;;;;;;118.72;48.38;;;;;;;;;;5052541;28;20117;-71
2023/09/11 03:20:38;;;;;;;114.78;46.50;;;;;;;;;;5049351;28;20103;-71
2023/09/11 03:23:04;;;;;;;119.32;46.45;;;;;;;;;;5016829;28;20041;-71
2023/09/11 03:25:37;;;;;;;116.43;45.83;;;;;;;;;;5049053;28;20052;-70
2023/09/11 03:28:04;;;;;;;113.35;46.58;;;;;;;;;;5000196;28;20040;-71
2023/09/11 03:30:29;;;;;;;113.32;46.15;;;;;;;;;;5016161;28;20052;-71
2023/09/11 03:32:55;;;;;;;126.90;46.63;;;;;;;;;;5016198;28;20145;-71
2023/09/11 03:35:23;;;;;;;116.07;46.53;;;;;;;;;;5032574;28;20060;-71
2023/09/11 03:37:48;;;;;;;111.18;46.17;;;;;;;;;;5016223;28;20476;-71
2023/09/11 03:40:15;;;;;;;106.35;45.97;;;;;;;;;;5015898;28;20052;-71
2023/09/11 03:42:41;;;;;;;109.78;45.70;;;;;;;;;;5035399;28;20032;-71
2023/09/11 03:45:07;;;;;;;105.72;45.22;;;;;;;;;;5019617;28;20522;-79
2023/09/11 03:47:34;;;;;;;105.72;43.08;;;;;;;;;;5003886;28;20045;-71
2023/09/11 03:50:04;;;;;;;95.15;40.78;;;;;;;;;;5019988;28;20128;-71
2023/09/11 03:52:30;;;;;;;92.63;39.65;;;;;;;;;;5054871;28;20119;-71
2023/09/11 03:54:57;;;;;;;100.68;41.33;;;;;;;;;;5073658;28;20496;-71
2023/09/11 03:57:23;;;;;;;90.28;40.40;;;;;;;;;;5040136;28;20039;-71
2023/09/11 03:59:50;;;;;;;85.63;38.42;;;;;;;;;;5074723;28;20044;-71
2023/09/11 04:02:16;;;;;;;88.18;38.22;;;;;;;;;;5058341;28;20090;-71
2023/09/11 04:04:41;;;;;;;93.03;39.70;;;;;;;;;;5036297;28;20402;-71
2023/09/11 04:07:07;;;;;;;92.57;39.40;;;;;;;;;;5019489;28;20041;-72
2023/09/11 04:09:33;;;;;;;96.40;38.38;;;;;;;;;;5015848;28;20070;-71
2023/09/11 04:12:02;;;;;;;152.05;43.92;;;;;;;;;;5008739;28;20430;-71
2023/09/11 04:14:28;;;;;;;122.55;40.20;;;;;;;;;;5018912;28;20044;-69
2023/09/11 04:16:54;;;;;;;184.40;40.63;;;;;;;;;;5035352;28;20041;-71
2023/09/11 04:19:20;;;;;;;167.50;38.08;;;;;;;;;;5019454;28;20045;-70
2023/09/11 04:21:46;;;;;;;321.25;39.65;;;;;;;;;;5002914;28;20507;-71
2023/09/11 04:24:13;;;;;;;363.55;38.97;;;;;;;;;;5035502;28;20391;-71
2023/09/11 04:26:44;;;;;;;219.75;37.60;;;;;;;;;;5010602;28;20033;-71
2023/09/11 04:29:11;;;;;;;195.05;35.17;;;;;;;;;;5035023;28;20035;-71
2023/09/11 04:31:37;;;;;;;141.98;37.20;;;;;;;;;;5018452;28;20167;-70
2023/09/11 04:34:03;;;;;;;107.30;33.95;;;;;;;;;;5002275;28;20515;-71
2023/09/11 04:36:29;;;;;;;69.47;31.48;;;;;;;;;;5035360;28;20045;-70
2023/09/11 04:38:56;;;;;;;65.60;30.15;;;;;;;;;;5035121;28;20037;-70
2023/09/11 04:41:21;;;;;;;64.75;32.40;;;;;;;;;;5034436;28;20037;-73
2023/09/11 04:43:47;;;;;;;70.28;32.17;;;;;;;;;;5018078;28;20033;-69
2023/09/11 04:46:16;;;;;;;57.88;29.25;;;;;;;;;;5010525;28;20134;-69
2023/09/11 04:48:42;;;;;;;63.28;31.10;;;;;;;;;;5073200;28;20034;-70
2023/09/11 04:51:08;;;;;;;54.78;29.00;;;;;;;;;;5052614;28;20929;-72
2023/09/11 04:53:34;;;;;;;55.47;29.00;;;;;;;;;;5034114;28;20044;-70
2023/09/11 04:56:00;;;;;;;51.75;26.80;;;;;;;;;;5065727;28;20056;-70
2023/09/11 04:58:26;;;;;;;53.33;30.00;;;;;;;;;;5051060;28;20483;-69
2023/09/11 05:00:52;;;;;;;44.65;25.00;;;;;;;;;;5051658;28;20467;-71
2023/09/11 05:03:18;;;;;;;45.50;25.60;;;;;;;;;;5051491;28;20552;-70
2023/09/11 05:05:47;;;;;;;45.38;23.63;;;;;;;;;;5032964;28;20100;-68
2023/09/11 05:08:14;;;;;;;45.95;24.27;;;;;;;;;;5029949;28;20757;-71
2023/09/11 05:10:42;;;;;;;35.97;21.70;;;;;;;;;;5034538;28;20139;-74
2023/09/11 05:13:10;;;;;;;35.90;21.58;;;;;;;;;;5020759;28;20063;-70
2023/09/11 05:15:37;;;;;;;33.20;20.58;;;;;;;;;;5051714;28;20051;-70
2023/09/11 05:18:03;;;;;;;37.90;20.70;;;;;;;;;;5071080;28;20032;-69
2023/09/11 05:20:32;;;;;;;45.03;24.47;;;;;;;;;;5051908;28;20036;-70
2023/09/11 05:22:58;;;;;;;43.38;24.40;;;;;;;;;;5053872;28;20132;-69
2023/09/11 05:25:24;;;;;;;47.83;24.95;;;;;;;;;;5069490;28;20070;-69
2023/09/11 05:27:50;;;;;;;41.50;23.80;;;;;;;;;;5091755;28;20058;-70
2023/09/11 05:30:15;;;;;;;41.05;23.90;;;;;;;;;;5057961;28;20123;-69
2023/09/11 05:32:41;;;;;;;43.85;25.20;;;;;;;;;;5074428;28;20143;-69
2023/09/11 05:35:08;;;;;;;47.30;26.00;;;;;;;;;;5092025;28;20032;-69
2023/09/11 05:37:34;;;;;;;48.08;25.48;;;;;;;;;;5074186;28;20062;-69
2023/09/11 05:40:07;;;;;;;51.15;26.67;;;;;;;;;;5090497;28;20039;-69
2023/09/11 05:42:32;;;;;;;48.13;26.02;;;;;;;;;;5074975;28;20052;-69
2023/09/11 05:44:58;;;;;;;50.92;26.17;;;;;;;;;;5075021;28;20032;-69
2023/09/11 05:47:24;;;;;;;52.50;25.42;;;;;;;;;;5058381;28;20097;-69
2023/09/11 05:49:50;;;;;;;43.50;24.92;;;;;;;;;;5058621;28;20036;-70
2023/09/11 05:52:16;;;;;;;47.50;23.23;;;;;;;;;;5058245;28;20371;-69
2023/09/11 05:54:41;;;;;;;53.13;23.63;;;;;;;;;;5092312;28;20036;-69
2023/09/11 05:57:07;;;;;;;42.35;24.00;;;;;;;;;;5075263;28;20084;-69
2023/09/11 05:59:33;;;;;;;40.28;24.35;;;;;;;;;;5074714;28;20755;-69
2023/09/11 06:01:58;;;;;;;43.58;24.92;;;;;;;;;;5037010;28;20036;-69
2023/09/11 06:04:24;;;;;;;43.88;23.05;;;;;;;;;;5036770;28;20154;-69
2023/09/11 06:06:51;;;;;;;46.63;24.23;;;;;;;;;;5036834;28;20044;-69
2023/09/11 06:09:17;;;;;;;43.85;22.52;;;;;;;;;;5053659;28;20036;-70
2023/09/11 06:11:42;;;;;;;49.42;24.85;;;;;;;;;;5053665;28;20126;-69
2023/09/11 06:14:08;;;;;;;46.03;23.95;;;;;;;;;;5037301;28;20209;-69
2023/09/11 06:16:34;;;;;;;44.78;24.25;;;;;;;;;;5037009;28;20047;-69
2023/09/11 06:19:00;;;;;;;41.85;24.20;;;;;;;;;;5020529;28;20080;-69
2023/09/11 06:21:27;;;;;;;39.65;24.27;;;;;;;;;;5070129;28;20400;-70
2023/09/11 06:23:53;;;;;;;41.28;23.77;;;;;;;;;;5053385;28;20094;-69
2023/09/11 06:26:18;;;;;;;43.78;23.77;;;;;;;;;;5053615;28;20040;-70
2023/09/11 06:28:44;;;;;;;43.22;22.88;;;;;;;;;;5037283;28;20072;-69
2023/09/11 06:31:10;;;;;;;44.08;24.70;;;;;;;;;;5070385;28;20067;-70
2023/09/11 06:33:37;;;;;;;47.72;24.27;;;;;;;;;;5033207;28;20049;-70
2023/09/11 06:36:03;;;;;;;48.80;24.92;;;;;;;;;;5000879;28;20037;-70
2023/09/11 06:38:29;;;;;;;39.35;24.70;;;;;;;;;;4994084;28;20341;-70
2023/09/11 06:40:55;;;;;;;49.30;24.08;;;;;;;;;;4994009;28;20046;-71
2023/09/11 06:46:10;;;;;;;43.58;23.52;;;;;;;;;;4939622;29;20062;-71
2023/09/11 06:48:36;;;;;;;48.10;23.98;;;;;;;;;;4954202;28;20101;-70
2023/09/11 06:51:02;;;;;;;38.33;22.38;;;;;;;;;;4904594;29;20482;-70
2023/09/11 06:56:23;;;;;;;58.47;24.50;;;;;;;;;;4932905;29;20048;-70
2023/09/11 06:58:48;;;;;;;47.40;25.23;;;;;;;;;;4901329;29;20499;-70
2023/09/11 07:01:14;;;;;;;42.75;23.27;;;;;;;;;;4901545;29;20078;-70
2023/09/11 07:03:53;;;;;;;43.83;22.40;;;;;;;;;;4898251;29;20151;-70
2023/09/11 07:06:19;;;;;;;50.83;24.02;;;;;;;;;;4951624;28;20502;-70
2023/09/11 07:09:04;;;;;;;42.55;23.33;;;;;;;;;;4970640;28;20158;-70
2023/09/11 07:11:44;;;;;;;54.35;25.00;;;;;;;;;;4970676;28;20051;-70
2023/09/11 07:14:45;;;;;;;59.55;24.00;;;;;;;;;;4983835;28;20054;-70
2023/09/11 07:17:17;;;;;;;;;;;;;;;;;;4990560;28;20062;-73
2023/09/11 07:19:45;;;;;;;48.47;23.67;;;;;;;;;;4976896;28;19918;-70
2023/09/11 07:22:12;;;;;;;45.33;22.42;;;;;;;;;;4992814;28;20051;-70
2023/09/11 07:24:55;;;;;;;53.95;23.17;;;;;;;;;;4995763;28;20586;-70
2023/09/11 07:27:33;;;;;;;46.72;21.40;;;;;;;;;;4997978;28;20555;-71
2023/09/11 07:30:30;;;;;;;42.42;21.20;;;;;;;;;;5017654;28;20046;-70
2023/09/11 07:32:59;;;;;;;35.90;20.05;;;;;;;;;;5001839;28;20056;-71
2023/09/11 07:35:25;;;;;;;36.90;17.95;;;;;;;;;;5002353;28;20195;-71
2023/09/11 07:37:53;;;;;;;32.55;18.10;;;;;;;;;;5046528;28;20116;-71
2023/09/11 07:40:20;;;;;;;30.42;17.55;;;;;;;;;;5041673;28;20048;-71
2023/09/11 07:43:15;;;;;;;33.20;18.52;;;;;;;;;;5024991;28;20044;-72
2023/09/11 07:45:41;;;;;;;27.85;17.27;;;;;;;;;;5040776;28;20110;-72
2023/09/11 07:48:22;;;;;;;34.35;16.90;;;;;;;;;;5024023;28;20060;-72
2023/09/11 07:51:20;;;;;;;35.80;17.40;;;;;;;;;;5042082;28;20131;-72
2023/09/11 07:53:47;;;;;;;26.88;17.08;;;;;;;;;;5061974;28;20134;-72
2023/09/11 07:56:34;;;;;;;28.30;15.30;;;;;;;;;;5078473;28;20036;-71
2023/09/11 07:59:01;;;;;;;31.17;13.98;;;;;;;;;;5078322;28;20039;-72
2023/09/11 08:01:27;;;;;;;23.80;13.00;;;;;;;;;;5061749;28;20036;-72
2023/09/11 08:03:54;;;;;;;19.63;11.73;;;;;;;;;;5061209;28;20401;-72
2023/09/11 08:06:20;;;;;;;26.15;13.13;;;;;;;;;;5061417;28;20036;-72
2023/09/11 08:08:46;;;;;;;23.98;13.90;;;;;;;;;;5061035;28;20046;-73
2023/09/11 08:11:17;;;;;;;18.02;10.68;;;;;;;;;;5060416;28;20465;-72
2023/09/11 08:13:43;;;;;;;19.65;12.70;;;;;;;;;;5077317;28;20044;-73
2023/09/11 08:16:09;;;;;;;21.48;11.05;;;;;;;;;;5076879;28;20131;-72
2023/09/11 08:18:35;;;;;;;18.17;10.52;;;;;;;;;;5077227;28;20036;-72
2023/09/11 08:21:01;;;;;;;14.20;10.13;;;;;;;;;;5076524;28;20046;-72
2023/09/11 08:23:27;;;;;;;21.02;10.68;;;;;;;;;;5076626;28;20048;-72
2023/09/11 08:25:59;;;;;;;20.92;10.57;;;;;;;;;;5072038;28;20101;-72
2023/09/11 08:28:28;;;;;;;21.23;9.95;;;;;;;;;;5038087;28;20399;-73
2023/09/11 08:30:54;;;;;;;17.52;10.10;;;;;;;;;;5022570;28;20036;-73
2023/09/11 08:33:26;;;;;;;24.35;10.32;;;;;;;;;;5038969;28;20147;-73
2023/09/11 08:35:52;;;;;;;16.60;8.98;;;;;;;;;;5022700;28;20128;-73
2023/09/11 08:38:18;;;;;;;18.90;9.43;;;;;;;;;;5039155;28;20578;-72
2023/09/11 08:40:44;;;;;;;18.77;8.80;;;;;;;;;;5005964;28;20040;-72
2023/09/11 08:43:10;;;;;;;21.48;8.90;;;;;;;;;;5022053;28;20283;-73
2023/09/11 08:45:36;;;;;;;18.50;8.57;;;;;;;;;;5021984;28;20032;-72
2023/09/11 08:48:08;;;;;;;21.65;8.43;;;;;;;;;;5055304;28;20127;-72
2023/09/11 08:50:37;;;;;;;21.02;7.90;;;;;;;;;;5039003;28;20024;-72
2023/09/11 08:53:04;;;;;;;18.92;9.35;;;;;;;;;;5071601;28;20048;-72
2023/09/11 08:55:33;;;;;;;16.67;8.50;;;;;;;;;;5054765;28;20127;-73
2023/09/11 08:58:03;;;;;;;14.30;7.68;;;;;;;;;;5058391;28;20369;-73
2023/09/11 09:00:32;;;;;;;16.52;8.05;;;;;;;;;;5054587;28;20087;-72
2023/09/11 09:03:02;;;;;;;17.05;8.15;;;;;;;;;;5038250;28;20151;-73
2023/09/11 09:05:30;;;;;;;18.20;8.40;;;;;;;;;;5038083;28;20062;-73
2023/09/11 09:07:56;;;;;;;18.55;9.13;;;;;;;;;;5037979;28;20470;-73
2023/09/11 09:10:22;;;;;;;15.98;8.80;;;;;;;;;;5054641;28;20048;-73
2023/09/11 09:12:49;;;;;;;19.20;8.02;;;;;;;;;;5037886;28;20040;-73
2023/09/11 09:15:16;;;;;;;16.85;7.95;;;;;;;;;;5038236;28;20048;-73
2023/09/11 09:17:43;;;;;;;20.27;8.38;;;;;;;;;;5037868;28;20386;-72
2023/09/11 09:20:10;;;;;;;22.13;7.70;;;;;;;;;;5037763;28;20051;-73
2023/09/11 09:22:49;;;;;;;17.85;9.95;;;;;;;;;;5037648;28;20045;-73
2023/09/11 09:25:16;;;;;;;21.55;8.75;;;;;;;;;;5054327;28;20135;-73
2023/09/11 09:27:42;;;;;;;20.17;8.25;;;;;;;;;;5037523;28;20459;-73
2023/09/11 09:30:17;;;;;;;19.02;8.32;;;;;;;;;;5031050;28;20076;-72
2023/09/11 09:32:43;;;;;;;19.02;8.80;;;;;;;;;;5054347;28;20105;-72
2023/09/11 09:35:10;;;;;;;17.75;7.88;;;;;;;;;;5021179;28;20048;-72
2023/09/11 09:37:36;;;;;;;21.35;7.38;;;;;;;;;;5020907;28;20047;-72
2023/09/11 09:40:04;;;;;;;9.55;6.40;;;;;;;;;;5020834;28;20048;-72
2023/09/11 09:42:42;;;;;;;11.50;6.53;;;;;;;;;;5020750;28;20052;-72
2023/09/11 09:45:09;;;;;;;15.35;6.85;;;;;;;;;;5020736;28;20032;-72
2023/09/11 09:47:36;;;;;;;16.00;7.47;;;;;;;;;;5037332;28;20048;-72
2023/09/11 09:50:02;;;;;;;10.77;6.07;;;;;;;;;;5037251;28;20064;-72
2023/09/11 09:52:30;;;;;;;12.93;7.05;;;;;;;;;;5021143;28;20514;-72
2023/09/11 09:55:02;;;;;;;13.40;6.97;;;;;;;;;;5021008;28;20040;-72
2023/09/11 09:57:31;;;;;;;13.35;7.30;;;;;;;;;;5021277;28;20047;-72
2023/09/11 09:59:59;;;;;;;12.18;6.93;;;;;;;;;;5021008;28;20101;-73
2023/09/11 10:02:30;;;;;;;15.40;7.32;;;;;;;;;;5074995;28;20542;-72
2023/09/11 10:04:57;;;;;;;16.52;7.65;;;;;;;;;;5074960;28;20036;-71
2023/09/11 10:07:35;;;;;;;16.63;7.80;;;;;;;;;;5074969;28;20039;-71
2023/09/11 10:10:21;;;;;;;12.30;6.87;;;;;;;;;;5074791;28;20409;-71
2023/09/11 10:13:12;;;;;;;16.25;7.10;;;;;;;;;;5091751;28;20044;-71
2023/09/11 10:15:41;;;;;;;14.82;7.28;;;;;;;;;;5070099;28;20495;-71
2023/09/11 10:18:09;;;;;;;16.35;7.18;;;;;;;;;;5074696;28;20048;-72
2023/09/11 10:20:35;;;;;;;13.30;7.28;;;;;;;;;;5057988;28;20031;-71
2023/09/11 10:23:02;;;;;;;15.25;7.30;;;;;;;;;;5057657;28;20040;-71
2023/09/11 10:25:29;;;;;;;11.73;7.35;;;;;;;;;;5091211;28;20043;-81
2023/09/11 10:28:02;;;;;;;11.80;7.18;;;;;;;;;;5057406;28;20497;-72
2023/09/11 10:30:32;;;;;;;15.23;6.93;;;;;;;;;;5091048;28;20032;-71
2023/09/11 10:33:00;;;;;;;14.75;7.82;;;;;;;;;;5074722;28;20131;-71
2023/09/11 10:35:28;;;;;;;12.07;6.82;;;;;;;;;;5091325;28;20136;-72
2023/09/11 10:37:56;;;;;;;15.95;7.30;;;;;;;;;;5091396;28;20039;-71
2023/09/11 10:40:31;;;;;;;13.15;7.90;;;;;;;;;;5090972;28;20036;-71
2023/09/11 10:42:57;;;;;;;14.05;6.75;;;;;;;;;;5074450;28;20044;-71
2023/09/11 10:45:27;;;;;;;12.50;6.70;;;;;;;;;;5090832;28;20028;-72
2023/09/11 10:47:53;;;;;;;;;;;;;;;;;;5058626;28;20039;-72
2023/09/11 10:50:18;;;;;;;13.57;7.45;;;;;;;;;;5075750;28;19922;-72
2023/09/11 10:52:45;;;;;;;11.02;7.60;;;;;;;;;;5078378;28;20032;-70
2023/09/11 10:55:11;;;;;;;15.52;8.10;;;;;;;;;;5078029;28;20501;-73
2023/09/11 10:57:37;;;;;;;11.73;7.82;;;;;;;;;;5078291;28;20032;-71
2023/09/11 11:00:05;;;;;;;12.98;7.30;;;;;;;;;;5078431;28;20408;-71
2023/09/11 11:02:32;;;;;;;15.23;8.00;;;;;;;;;;5094829;28;20048;-72
2023/09/11 11:04:58;;;;;;;15.85;8.05;;;;;;;;;;5061451;28;20040;-71
2023/09/11 11:07:23;;;;;;;13.75;7.75;;;;;;;;;;5061334;28;20040;-71
2023/09/11 11:09:52;;;;;;;17.00;8.23;;;;;;;;;;5061384;28;20051;-71
2023/09/11 11:12:30;;;;;;;12.80;8.05;;;;;;;;;;5078825;28;20046;-71
2023/09/11 11:15:14;;;;;;;13.25;8.13;;;;;;;;;;5062749;28;20028;-71
2023/09/11 11:17:40;;;;;;;13.88;8.00;;;;;;;;;;5078716;28;20040;-70
2023/09/11 11:20:07;;;;;;;16.70;7.93;;;;;;;;;;5061557;28;20046;-72
2023/09/11 11:22:34;;;;;;;11.07;8.40;;;;;;;;;;5061581;28;20048;-71
2023/09/11 11:25:03;;;;;;;15.43;8.80;;;;;;;;;;5078521;28;20032;-68
2023/09/11 11:27:29;;;;;;;15.93;9.13;;;;;;;;;;5095287;28;20036;-68
2023/09/11 11:29:56;;;;;;;18.10;8.77;;;;;;;;;;5077745;28;20039;-68
2023/09/11 11:32:22;;;;;;;19.75;9.45;;;;;;;;;;5094972;28;20502;-69
2023/09/11 11:34:50;;;;;;;14.10;9.10;;;;;;;;;;5078028;28;20036;-69
2023/09/11 11:37:20;;;;;;;13.10;8.85;;;;;;;;;;5078037;28;20040;-69
2023/09/11 11:39:46;;;;;;;21.30;9.80;;;;;;;;;;5061161;28;20034;-69
2023/09/11 11:42:12;;;;;;;14.70;9.05;;;;;;;;;;5094912;28;20035;-69
2023/09/11 11:44:38;;;;;;;15.68;8.80;;;;;;;;;;5111010;28;20127;-69
2023/09/11 11:47:06;;;;;;;15.20;8.05;;;;;;;;;;5094051;28;20051;-69
2023/09/11 11:49:36;;;;;;;20.75;8.80;;;;;;;;;;5094348;28;20496;-69
2023/09/11 11:52:03;;;;;;;17.75;8.43;;;;;;;;;;5077675;28;20078;-68
2023/09/11 11:54:29;;;;;;;17.38;9.23;;;;;;;;;;5077297;28;20474;-69
2023/09/11 11:56:56;;;;;;;17.48;9.40;;;;;;;;;;5077089;28;20036;-68
2023/09/11 11:59:22;;;;;;;18.63;8.52;;;;;;;;;;5093933;28;20039;-68
2023/09/11 12:01:48;;;;;;;18.85;9.95;;;;;;;;;;5093891;28;20036;-68
2023/09/11 12:04:15;;;;;;;15.35;8.00;;;;;;;;;;5060342;28;20109;-68
2023/09/11 12:06:41;;;;;;;14.38;8.35;;;;;;;;;;5077059;28;20553;-68
2023/09/11 12:09:08;;;;;;;17.52;8.60;;;;;;;;;;5060753;28;20497;-68
2023/09/11 12:11:36;;;;;;;18.65;8.75;;;;;;;;;;5076728;28;20059;-69
2023/09/11 12:14:02;;;;;;;14.65;8.50;;;;;;;;;;5094846;28;20105;-68
2023/09/11 12:16:31;;;;;;;16.45;8.00;;;;;;;;;;5094150;28;20047;-69
2023/09/11 12:18:57;;;;;;;17.63;8.10;;;;;;;;;;5056349;28;20486;-69
2023/09/11 12:21:23;;;;;;;25.15;9.35;;;;;;;;;;5073330;28;20294;-69
2023/09/11 12:23:49;;;;;;;13.75;8.57;;;;;;;;;;5056074;28;20106;-67
2023/09/11 12:26:14;;;;;;;17.27;8.57;;;;;;;;;;5056698;28;20037;-73
2023/09/11 12:28:40;;;;;;;19.00;9.43;;;;;;;;;;5056955;28;20040;-73
2023/09/11 12:31:06;;;;;;;22.15;9.35;;;;;;;;;;5072068;28;20044;-73
2023/09/11 12:33:34;;;;;;;25.60;9.75;;;;;;;;;;5039354;28;20446;-73
2023/09/11 12:36:00;;;;;;;23.63;8.70;;;;;;;;;;5038963;28;20040;-73
2023/09/11 12:38:26;;;;;;;15.90;8.20;;;;;;;;;;5055533;28;20093;-73
2023/09/11 12:40:52;;;;;;;15.80;8.75;;;;;;;;;;5055559;28;20029;-72
2023/09/11 12:43:18;;;;;;;14.80;9.13;;;;;;;;;;5038674;28;20113;-73
2023/09/11 12:45:44;;;;;;;19.77;8.60;;;;;;;;;;5055028;28;20051;-74
2023/09/11 12:48:10;;;;;;;17.92;8.70;;;;;;;;;;5055157;28;20040;-73
2023/09/11 12:50:45;;;;;;;23.30;7.93;;;;;;;;;;5084178;28;20055;-73
2023/09/11 12:53:11;;;;;;;21.38;9.05;;;;;;;;;;5059463;28;20113;-73
2023/09/11 12:55:50;;;;;;;;;;;;;;;;;;;;;
2023/09/11 12:58:17;;;;;;;24.13;8.82;;;;;;;;;;5042210;28;20044;-72
2023/09/11 13:00:52;;;;;;;14.93;9.00;;;;;;;;;;5076242;28;20085;-72
2023/09/11 13:03:19;;;;;;;17.50;9.38;;;;;;;;;;5076072;28;20044;-72
2023/09/11 13:05:58;;;;;;;16.63;9.02;;;;;;;;;;5092953;28;20039;-73
2023/09/11 13:08:28;;;;;;;19.92;10.13;;;;;;;;;;5075905;28;20431;-72
2023/09/11 13:11:00;;;;;;;17.17;8.80;;;;;;;;;;5092505;28;20064;-72
2023/09/11 13:13:25;;;;;;;19.90;10.10;;;;;;;;;;5092704;28;20039;-74
2023/09/11 13:16:17;;;;;;;17.13;10.23;;;;;;;;;;5075301;28;20050;-73
2023/09/11 13:19:25;;;;;;;20.33;10.52;;;;;;;;;;5092968;28;20424;-73
2023/09/11 13:21:33;;;;;;;12.55;8.82;;;;;;;;;;5079946;28;20097;-74
2023/09/11 13:24:08;;;;;;;23.30;9.80;;;;;;;;;;5092099;28;20097;-73
2023/09/11 13:26:34;;;;;;;24.08;9.27;;;;;;;;;;5075631;28;20040;-73
2023/09/11 13:29:13;;;;;;;16.30;7.75;;;;;;;;;;5092770;28;20138;-73
2023/09/11 13:31:39;;;;;;;24.15;7.47;;;;;;;;;;5092357;28;20054;-72
2023/09/11 13:34:05;;;;;;;20.77;7.90;;;;;;;;;;5075939;28;20032;-73
2023/09/11 13:36:31;;;;;;;31.35;9.63;;;;;;;;;;5093039;28;20543;-74
2023/09/11 13:38:57;;;;;;;21.30;8.10;;;;;;;;;;5059015;28;20085;-73
2023/09/11 13:41:22;;;;;;;22.98;9.25;;;;;;;;;;5058974;28;20503;-73
2023/09/11 13:43:49;;;;;;;15.50;7.93;;;;;;;;;;5092702;28;20374;-73
2023/09/11 13:46:15;;;;;;;18.70;7.65;;;;;;;;;;5093443;28;20036;-73
2023/09/11 13:48:40;;;;;;;18.10;7.63;;;;;;;;;;5092668;28;20126;-72
2023/09/11 13:51:06;;;;;;;20.42;8.40;;;;;;;;;;5076144;28;20063;-74
2023/09/11 13:53:31;;;;;;;19.35;8.52;;;;;;;;;;5075480;28;20036;-74
2023/09/11 13:55:58;;;;;;;24.70;10.40;;;;;;;;;;5093142;28;20039;-73
2023/09/11 13:58:23;;;;;;;18.30;8.85;;;;;;;;;;5092076;28;20032;-74
2023/09/11 14:00:49;;;;;;;21.30;8.88;;;;;;;;;;5075342;28;20114;-72
2023/09/11 14:03:14;;;;;;;15.15;9.20;;;;;;;;;;5084354;28;20040;-73
2023/09/11 14:05:40;;;;;;;22.10;9.60;;;;;;;;;;5038385;28;20036;-73
2023/09/11 14:08:06;;;;;;;12.13;8.23;;;;;;;;;;5081701;28;20362;-73
2023/09/11 14:10:32;;;;;;;19.90;7.88;;;;;;;;;;5087658;28;20379;-72
2023/09/11 14:12:57;;;;;;;15.57;8.48;;;;;;;;;;5081591;28;20040;-72
2023/09/11 14:15:23;;;;;;;16.38;8.13;;;;;;;;;;5090764;28;20036;-71
2023/09/11 14:17:49;;;;;;;19.38;7.75;;;;;;;;;;5089543;28;20042;-72
2023/09/11 14:20:15;;;;;;;9.88;7.07;;;;;;;;;;5089638;28;20470;-72
2023/09/11 14:22:41;;;;;;;15.88;7.95;;;;;;;;;;5089229;28;20084;-72
2023/09/11 14:25:07;;;;;;;11.32;7.20;;;;;;;;;;5088972;28;20748;-72
2023/09/11 14:27:33;;;;;;;18.02;7.18;;;;;;;;;;5091271;28;20040;-72
2023/09/11 14:29:58;;;;;;;14.38;7.50;;;;;;;;;;5072474;28;20502;-71
2023/09/11 14:32:24;;;;;;;12.57;6.80;;;;;;;;;;5090520;28;20052;-72
2023/09/11 14:34:50;;;;;;;12.55;7.43;;;;;;;;;;5092152;28;20432;-73